createdAt,value
2018-08-25T00:00:05.549Z,36
2018-08-25T00:02:08.400Z,35.9
2018-08-25T00:04:05.087Z,35.9
2018-08-25T00:06:05.802Z,35.8
2018-08-25T00:08:10.547Z,35.9
2018-08-25T00:10:05.340Z,36
2018-08-25T00:12:04.976Z,35.9
2018-08-25T00:14:07.669Z,36.1
2018-08-25T00:16:05.353Z,36.1
2018-08-25T00:18:05.371Z,35.9
2018-08-25T00:20:05.250Z,36
2018-08-25T00:22:13.528Z,36.2
2018-08-25T00:24:05.196Z,36.2
2018-08-25T00:26:05.964Z,36
2018-08-25T00:28:08.371Z,36.1
2018-08-25T00:30:07.783Z,36.2
2018-08-25T00:32:08.286Z,36.1
2018-08-25T00:34:05.481Z,36
2018-08-25T00:36:05.197Z,36.1
2018-08-25T00:38:05.477Z,36
2018-08-25T00:40:05.237Z,36.1
2018-08-25T00:42:05.954Z,36
2018-08-25T00:44:08.259Z,36
2018-08-25T00:46:05.497Z,36.2
2018-08-25T00:48:05.248Z,35.9
2018-08-25T00:50:07.765Z,36
2018-08-25T00:52:08.690Z,36
2018-08-25T00:54:08.099Z,36.2
2018-08-25T00:56:05.835Z,36.2
2018-08-25T00:58:05.071Z,36
2018-08-25T01:00:06.774Z,36.2
2018-08-25T01:02:11.072Z,36.1
2018-08-25T01:04:08.351Z,36.3
2018-08-25T01:06:10.073Z,36.1
2018-08-25T01:08:08.301Z,36.3
2018-08-25T01:10:05.974Z,36
2018-08-25T01:12:05.231Z,36.1
2018-08-25T01:14:05.922Z,35.9
2018-08-25T01:16:05.603Z,36.1
2018-08-25T01:18:05.685Z,36.1
2018-08-25T01:20:05.419Z,36
2018-08-25T01:22:05.392Z,36.1
2018-08-25T01:24:05.127Z,35.5
2018-08-25T01:26:05.904Z,36.1
2018-08-25T01:28:11.779Z,36.1
2018-08-25T01:30:10.511Z,36.1
2018-08-25T01:32:07.991Z,36.1
2018-08-25T01:34:08.263Z,35.9
2018-08-25T01:36:05.511Z,35.9
2018-08-25T01:38:05.421Z,35.9
2018-08-25T01:40:05.233Z,35.9
2018-08-25T01:42:10.985Z,35.9
2018-08-25T01:44:05.679Z,35.9
2018-08-25T01:46:05.588Z,35.9
2018-08-25T01:48:05.326Z,35.9
2018-08-25T01:50:05.191Z,35.9
2018-08-25T01:52:05.922Z,35.9
2018-08-25T01:54:08.217Z,35.9
2018-08-25T01:56:05.914Z,35.9
2018-08-25T01:58:05.624Z,35.9
2018-08-25T02:00:08.285Z,35.7
2018-08-25T02:02:05.832Z,35.9
2018-08-25T02:04:05.774Z,35.9
2018-08-25T02:06:06.680Z,35.7
2018-08-25T02:08:13.493Z,35.7
2018-08-25T02:10:05.267Z,35.4
2018-08-25T02:12:05.500Z,35.7
2018-08-25T02:14:05.288Z,35.7
2018-08-25T02:16:06.012Z,35.8
2018-08-25T02:18:10.530Z,35.8
2018-08-25T02:20:11.043Z,36
2018-08-25T02:22:05.743Z,36
2018-08-25T02:24:05.412Z,36.4
2018-08-25T02:26:05.117Z,36.3
2018-08-25T02:28:05.973Z,36.3
2018-08-25T02:30:05.931Z,36.3
2018-08-25T02:32:07.679Z,36.3
2018-08-25T02:34:05.511Z,36.3
2018-08-25T02:36:05.193Z,36.4
2018-08-25T02:38:05.449Z,36.4
2018-08-25T02:40:08.276Z,36.6
2018-08-25T02:42:11.015Z,36.3
2018-08-25T02:44:05.761Z,36
2018-08-25T02:46:05.466Z,33.4
2018-08-25T02:48:05.154Z,36.4
2018-08-25T02:50:10.906Z,36.5
2018-08-25T02:52:05.663Z,36.6
2018-08-25T02:54:07.980Z,36.8
2018-08-25T02:56:05.660Z,37
2018-08-25T02:58:10.432Z,36.7
2018-08-25T03:00:05.127Z,36.7
2018-08-25T03:02:05.831Z,37.2
2018-08-25T03:04:05.476Z,37.2
2018-08-25T03:06:05.165Z,37.1
2018-08-25T03:08:05.395Z,36.9
2018-08-25T03:10:05.658Z,37.2
2018-08-25T03:12:07.941Z,37.2
2018-08-25T03:14:05.595Z,37.2
2018-08-25T03:16:07.906Z,37.3
2018-08-25T03:18:05.766Z,37.3
2018-08-25T03:20:11.051Z,37.3
2018-08-25T03:22:08.384Z,37.5
2018-08-25T03:24:05.157Z,37.3
2018-08-25T03:26:05.821Z,37.6
2018-08-25T03:28:05.525Z,37.5
2018-08-25T03:30:05.256Z,37.6
2018-08-25T03:32:05.495Z,37.6
2018-08-25T03:34:05.178Z,37.6
2018-08-25T03:36:05.879Z,37.6
2018-08-25T03:38:05.503Z,37.7
2018-08-25T03:40:05.215Z,37.7
2018-08-25T03:42:08.497Z,37.7
2018-08-25T03:44:05.207Z,37.5
2018-08-25T03:46:10.980Z,37.8
2018-08-25T03:48:05.668Z,37.8
2018-08-25T03:50:05.410Z,37.6
2018-08-25T03:52:05.199Z,37.8
2018-08-25T03:54:05.462Z,37.6
2018-08-25T03:56:05.152Z,37.7
2018-08-25T03:58:05.926Z,37.6
2018-08-25T04:00:05.608Z,37.6
2018-08-25T04:02:07.994Z,37.6
2018-08-25T04:04:08.256Z,37.4
2018-08-25T04:06:05.946Z,37.4
2018-08-25T04:08:05.642Z,37.5
2018-08-25T04:10:07.960Z,37.6
2018-08-25T04:12:05.740Z,37.5
2018-08-25T04:14:05.463Z,37.6
2018-08-25T04:16:05.739Z,37.6
2018-08-25T04:18:05.615Z,37.7
2018-08-25T04:20:05.881Z,37.7
2018-08-25T04:22:05.717Z,37.7
2018-08-25T04:24:05.649Z,37.7
2018-08-25T04:26:07.948Z,37.8
2018-08-25T04:28:05.719Z,37.8
2018-08-25T04:30:05.533Z,37.7
2018-08-25T04:32:05.322Z,37.8
2018-08-25T04:34:05.641Z,37.8
2018-08-25T04:36:05.436Z,37.8
2018-08-25T04:38:07.615Z,37.9
2018-08-25T04:40:05.878Z,37.9
2018-08-25T04:42:05.598Z,37.9
2018-08-25T04:44:10.357Z,37.9
2018-08-25T04:46:18.301Z,37.9
2018-08-25T04:48:06.011Z,37.9
2018-08-25T04:50:05.783Z,37.9
2018-08-25T04:52:05.507Z,37.9
2018-08-25T04:54:09.137Z,37.9
2018-08-25T04:56:10.682Z,38
2018-08-25T04:58:05.426Z,38
2018-08-25T05:00:05.154Z,37.9
2018-08-25T05:02:05.425Z,37.8
2018-08-25T05:04:05.143Z,37.7
2018-08-25T05:06:05.822Z,37.8
2018-08-25T05:08:05.548Z,37.8
2018-08-25T05:10:05.275Z,37.7
2018-08-25T05:12:05.990Z,37.6
2018-08-25T05:14:05.674Z,37.5
2018-08-25T05:16:05.364Z,37.7
2018-08-25T05:18:05.310Z,37.6
2018-08-25T05:20:05.052Z,37.6
2018-08-25T05:22:06.062Z,37.6
2018-08-25T05:24:05.051Z,37.5
2018-08-25T05:26:05.772Z,37.5
2018-08-25T05:28:07.971Z,37.6
2018-08-25T05:30:05.689Z,37.6
2018-08-25T05:32:05.415Z,37.3
2018-08-25T05:34:05.730Z,37.4
2018-08-25T05:36:05.429Z,37.3
2018-08-25T05:38:05.184Z,37.3
2018-08-25T05:40:05.966Z,37.3
2018-08-25T05:42:08.178Z,37.1
2018-08-25T05:44:05.986Z,37.1
2018-08-25T05:46:05.788Z,37.1
2018-08-25T05:48:08.131Z,37.2
2018-08-25T05:50:08.459Z,37.4
2018-08-25T05:52:07.773Z,37.4
2018-08-25T05:54:05.463Z,37.4
2018-08-25T05:56:05.157Z,37.3
2018-08-25T05:58:05.906Z,37.2
2018-08-25T06:00:05.631Z,37.2
2018-08-25T06:02:05.338Z,37.3
2018-08-25T06:04:05.222Z,37.2
2018-08-25T06:06:05.982Z,37.2
2018-08-25T06:08:08.411Z,37.4
2018-08-25T06:10:05.160Z,37.2
2018-08-25T06:12:08.424Z,37.1
2018-08-25T06:14:05.140Z,37.1
2018-08-25T06:16:08.371Z,37
2018-08-25T06:18:07.979Z,37.1
2018-08-25T06:20:05.719Z,37.1
2018-08-25T06:22:05.412Z,37
2018-08-25T06:24:10.146Z,37.1
2018-08-25T06:26:05.866Z,37.1
2018-08-25T06:28:05.701Z,37.2
2018-08-25T06:30:08.139Z,37.1
2018-08-25T06:32:05.363Z,37.2
2018-08-25T06:34:05.681Z,37.1
2018-08-25T06:36:05.581Z,37.2
2018-08-25T06:38:05.610Z,37.3
2018-08-25T06:40:05.349Z,37.1
2018-08-25T06:42:05.570Z,37.1
2018-08-25T06:44:10.443Z,37.2
2018-08-25T06:46:05.270Z,37.2
2018-08-25T06:48:06.119Z,37
2018-08-25T06:50:08.466Z,37.1
2018-08-25T06:52:05.238Z,37.1
2018-08-25T06:54:05.984Z,37.1
2018-08-25T06:56:05.354Z,37.1
2018-08-25T06:58:07.636Z,37.2
2018-08-25T07:00:06.037Z,37.2
2018-08-25T07:02:05.769Z,37.2
2018-08-25T07:04:13.097Z,36.9
2018-08-25T07:06:06.103Z,36.9
2018-08-25T07:08:05.182Z,36.8
2018-08-25T07:10:05.913Z,36.7
2018-08-25T07:12:18.913Z,36.8
2018-08-25T07:14:05.036Z,36.6
2018-08-25T07:16:10.886Z,36.7
2018-08-25T07:18:08.853Z,36.7
2018-08-25T07:20:05.548Z,36.6
2018-08-25T07:22:05.336Z,36.7
2018-08-25T07:24:07.669Z,36.8
2018-08-25T07:26:05.947Z,36.8
2018-08-25T07:28:08.297Z,36.8
2018-08-25T07:30:05.617Z,36.8
2018-08-25T07:32:05.462Z,36.7
2018-08-25T07:34:05.745Z,36.7
2018-08-25T07:36:08.516Z,36.7
2018-08-25T07:38:08.332Z,36.7
2018-08-25T07:40:15.127Z,36.5
2018-08-25T07:42:05.857Z,36.3
2018-08-25T07:44:05.588Z,36.2
2018-08-25T07:46:08.418Z,36.1
2018-08-25T07:48:05.262Z,36.4
2018-08-25T07:50:08.510Z,36.6
2018-08-25T07:52:05.224Z,36.5
2018-08-25T07:54:05.962Z,36.5
2018-08-25T07:56:08.310Z,36.5
2018-08-25T07:58:11.112Z,36.7
2018-08-25T08:00:05.817Z,36.7
2018-08-25T08:02:09.047Z,36.6
2018-08-25T08:04:10.357Z,36.3
2018-08-25T08:06:08.211Z,36.5
2018-08-25T08:08:05.910Z,36.3
2018-08-25T08:10:05.616Z,36.6
2018-08-25T08:12:08.153Z,36.5
2018-08-25T08:14:08.536Z,36.2
2018-08-25T08:16:05.322Z,36.2
2018-08-25T08:18:05.257Z,36.5
2018-08-25T08:20:05.560Z,36.3
2018-08-25T08:22:05.274Z,36.1
2018-08-25T08:24:05.984Z,36.3
2018-08-25T08:26:05.200Z,36.2
2018-08-25T08:28:05.860Z,36.4
2018-08-25T08:30:05.657Z,36.4
2018-08-25T08:32:05.939Z,36.3
2018-08-25T08:34:05.687Z,36.1
2018-08-25T08:36:10.435Z,36.3
2018-08-25T08:38:08.238Z,36.2
2018-08-25T08:40:05.960Z,36.2
2018-08-25T08:42:05.659Z,36.1
2018-08-25T08:44:05.538Z,35.9
2018-08-25T08:46:05.282Z,36
2018-08-25T08:48:08.576Z,36.1
2018-08-25T08:50:05.513Z,35.9
2018-08-25T08:52:07.768Z,36.2
2018-08-25T08:54:06.035Z,36
2018-08-25T08:56:05.886Z,36.1
2018-08-25T08:58:08.325Z,36.1
2018-08-25T09:00:05.383Z,35.9
2018-08-25T09:02:05.385Z,35.9
2018-08-25T09:04:05.097Z,35.9
2018-08-25T09:06:05.796Z,35.9
2018-08-25T09:08:05.517Z,35.9
2018-08-25T09:10:05.202Z,35.9
2018-08-25T09:12:05.870Z,36
2018-08-25T09:14:05.570Z,36
2018-08-25T09:16:05.332Z,36
2018-08-25T09:18:07.847Z,35.8
2018-08-25T09:20:05.249Z,35.8
2018-08-25T09:22:10.119Z,35.7
2018-08-25T09:24:08.346Z,35.9
2018-08-25T09:26:05.028Z,35.9
2018-08-25T09:28:05.762Z,35.9
2018-08-25T09:30:05.520Z,35.8
2018-08-25T09:32:05.843Z,35.8
2018-08-25T09:34:05.787Z,35.6
2018-08-25T09:36:05.865Z,35.8
2018-08-25T09:38:05.557Z,35.7
2018-08-25T09:40:10.322Z,35.6
2018-08-25T09:42:05.032Z,35.7
2018-08-25T09:44:05.322Z,35.6
2018-08-25T09:46:05.004Z,35.6
2018-08-25T09:48:05.767Z,35.5
2018-08-25T09:50:06.045Z,35.4
2018-08-25T09:52:05.854Z,35.4
2018-08-25T09:54:05.556Z,35.5
2018-08-25T09:56:05.833Z,35.5
2018-08-25T09:58:05.686Z,35.6
2018-08-25T10:00:05.965Z,35.8
2018-08-25T10:02:05.900Z,35.7
2018-08-25T10:04:05.678Z,35.6
2018-08-25T10:06:05.416Z,35.7
2018-08-25T10:08:05.692Z,35.6
2018-08-25T10:10:07.945Z,35.4
2018-08-25T10:12:05.657Z,35.4
2018-08-25T10:14:05.365Z,35.3
2018-08-25T10:16:05.025Z,35.4
2018-08-25T10:18:05.909Z,35.4
2018-08-25T10:20:05.693Z,35.5
2018-08-25T10:22:05.521Z,35.6
2018-08-25T10:24:05.243Z,35.6
2018-08-25T10:26:05.968Z,35.7
2018-08-25T10:28:05.814Z,35.8
2018-08-25T10:30:05.551Z,35.9
2018-08-25T10:32:07.821Z,36.3
2018-08-25T10:34:05.557Z,36.3
2018-08-25T10:36:07.781Z,36.5
2018-08-25T10:38:05.522Z,36.5
2018-08-25T10:40:05.293Z,36.5
2018-08-25T10:42:06.235Z,36.5
2018-08-25T10:44:05.291Z,36.5
2018-08-25T10:46:06.060Z,36.5
2018-08-25T10:48:06.243Z,36.4
2018-08-25T10:50:05.817Z,36.3
2018-08-25T10:52:05.581Z,36.2
2018-08-25T10:54:05.639Z,36.3
2018-08-25T10:56:05.091Z,36.4
2018-08-25T10:58:05.818Z,36.4
2018-08-25T11:00:05.701Z,36.3
2018-08-25T11:02:08.086Z,36.2
2018-08-25T11:04:05.790Z,36.1
2018-08-25T11:06:05.490Z,36.1
2018-08-25T11:08:05.195Z,35.9
2018-08-25T11:10:08.463Z,35.9
2018-08-25T11:12:05.179Z,36.1
2018-08-25T11:14:05.857Z,36
2018-08-25T11:16:13.212Z,36.1
2018-08-25T11:18:05.143Z,36.1
2018-08-25T11:20:05.884Z,36
2018-08-25T11:22:05.646Z,36
2018-08-25T11:24:05.378Z,36.1
2018-08-25T11:26:05.069Z,36.2
2018-08-25T11:28:05.840Z,36.2
2018-08-25T11:30:08.078Z,36.1
2018-08-25T11:32:05.800Z,36.1
2018-08-25T11:34:05.505Z,36.1
2018-08-25T11:36:05.508Z,35.8
2018-08-25T11:38:05.429Z,35.7
2018-08-25T11:40:05.519Z,35.3
2018-08-25T11:42:05.311Z,35.2
2018-08-25T11:44:05.235Z,35
2018-08-25T11:46:05.287Z,35.1
2018-08-25T11:48:05.977Z,35
2018-08-25T11:50:10.775Z,34.5
2018-08-25T11:52:05.590Z,34.6
2018-08-25T11:54:05.357Z,34.3
2018-08-25T11:56:05.316Z,34.1
2018-08-25T11:58:05.006Z,34.1
2018-08-25T12:00:08.321Z,34.1
2018-08-25T12:02:05.154Z,34.3
2018-08-25T12:04:06.052Z,34.1
2018-08-25T12:06:10.865Z,33.8
2018-08-25T12:08:05.573Z,33.8
2018-08-25T12:10:05.267Z,33.8
2018-08-25T12:12:06.010Z,34.1
2018-08-25T12:14:13.311Z,34.2
2018-08-25T12:16:05.066Z,34.4
2018-08-25T12:18:05.966Z,34.3
2018-08-25T12:20:08.164Z,34.1
2018-08-25T12:22:05.927Z,33.8
2018-08-25T12:24:05.814Z,33.8
2018-08-25T12:26:05.718Z,33.8
2018-08-25T12:28:05.529Z,33.8
2018-08-25T12:30:05.293Z,34.1
2018-08-25T12:32:05.989Z,33.8
2018-08-25T12:34:05.702Z,33.8
2018-08-25T12:36:05.482Z,33.8
2018-08-25T12:38:05.260Z,33.6
2018-08-25T12:40:08.074Z,33.8
2018-08-25T12:42:05.336Z,33.8
2018-08-25T12:44:05.072Z,33.6
2018-08-25T12:46:08.312Z,33.7
2018-08-25T12:48:05.986Z,33.5
2018-08-25T12:50:05.741Z,33.2
2018-08-25T12:52:05.488Z,33.1
2018-08-25T12:54:05.215Z,33.1
2018-08-25T12:56:06.966Z,33.2
2018-08-25T12:58:06.624Z,33
2018-08-25T13:00:09.243Z,32.8
2018-08-25T13:02:06.169Z,32.8
2018-08-25T13:04:08.403Z,32.8
2018-08-25T13:06:12.414Z,32.6
2018-08-25T13:08:05.934Z,32.6
2018-08-25T13:10:06.344Z,32.6
2018-08-25T13:12:05.898Z,32.3
2018-08-25T13:14:06.696Z,32.3
2018-08-25T13:16:16.754Z,32.5
2018-08-25T13:18:05.766Z,32.5
2018-08-25T13:20:09.143Z,32.3
2018-08-25T13:22:05.131Z,32.3
2018-08-25T13:24:05.917Z,32.1
2018-08-25T13:26:05.665Z,32.1
2018-08-25T13:28:08.222Z,32
2018-08-25T13:30:08.554Z,31.9
2018-08-25T13:32:05.338Z,31.9
2018-08-25T13:34:05.055Z,31.7
2018-08-25T13:36:08.415Z,31.7
2018-08-25T13:38:05.701Z,31.7
2018-08-25T13:40:05.858Z,31.7
2018-08-25T13:42:05.804Z,31.8
2018-08-25T13:44:07.628Z,31.2
2018-08-25T13:46:05.525Z,31
2018-08-25T13:48:05.266Z,31
2018-08-25T13:50:06.016Z,31.2
2018-08-25T13:52:05.329Z,31.3
2018-08-25T13:54:05.533Z,31.3
2018-08-25T13:56:05.280Z,31.4
2018-08-25T13:58:05.270Z,31.6
2018-08-25T14:00:05.294Z,31.9
2018-08-25T14:02:06.008Z,32.1
2018-08-25T14:04:06.276Z,32.5
2018-08-25T14:06:05.227Z,32.9
2018-08-25T14:08:06.036Z,32.9
2018-08-25T14:10:05.797Z,32.9
2018-08-25T14:12:05.549Z,33
2018-08-25T14:14:05.244Z,32.9
2018-08-25T14:16:11.617Z,33.3
2018-08-25T14:18:06.179Z,33.4
2018-08-25T14:20:05.683Z,33.7
2018-08-25T14:22:05.381Z,33.8
2018-08-25T14:24:10.356Z,34.5
2018-08-25T14:26:05.601Z,34.4
2018-08-25T14:28:05.381Z,34.3
2018-08-25T14:30:05.250Z,34.4
2018-08-25T14:32:11.079Z,34.3
2018-08-25T14:34:10.772Z,34.5
2018-08-25T14:36:10.285Z,34.7
2018-08-25T14:38:05.063Z,34.5
2018-08-25T14:40:10.885Z,34.5
2018-08-25T14:42:05.607Z,34.5
2018-08-25T14:44:05.867Z,34.5
2018-08-25T14:46:05.769Z,34.7
2018-08-25T14:48:08.259Z,34.6
2018-08-25T14:50:06.817Z,34.7
2018-08-25T14:52:05.253Z,34.8
2018-08-25T14:54:06.092Z,34.9
2018-08-25T14:56:05.992Z,34.9
2018-08-25T14:58:05.912Z,35
2018-08-25T15:00:06.085Z,35.3
2018-08-25T15:02:10.678Z,35.5
2018-08-25T15:04:05.370Z,35.5
2018-08-25T15:06:05.077Z,35.5
2018-08-25T15:08:06.135Z,35.5
2018-08-25T15:10:05.944Z,35.5
2018-08-25T15:12:05.166Z,35.6
2018-08-25T15:14:05.823Z,35.7
2018-08-25T15:16:05.588Z,36
2018-08-25T15:18:05.539Z,35.9
2018-08-25T15:20:05.306Z,35.9
2018-08-25T15:22:05.554Z,35.9
2018-08-25T15:24:07.848Z,35.9
2018-08-25T15:26:05.606Z,35.9
2018-08-25T15:28:05.371Z,35.8
2018-08-25T15:30:05.091Z,35.4
2018-08-25T15:32:06.229Z,35.2
2018-08-25T15:34:10.810Z,35
2018-08-25T15:36:05.565Z,35
2018-08-25T15:38:05.592Z,35
2018-08-25T15:40:13.445Z,34.7
2018-08-25T15:42:08.903Z,34.9
2018-08-25T15:44:05.233Z,34.8
2018-08-25T15:46:05.488Z,34.4
2018-08-25T15:48:05.417Z,34.4
2018-08-25T15:50:05.244Z,34.3
2018-08-25T15:52:06.049Z,34.3
2018-08-25T15:54:05.921Z,34.4
2018-08-25T15:56:05.671Z,34.5
2018-08-25T15:58:05.839Z,34.2
2018-08-25T16:00:08.113Z,34
2018-08-25T16:02:05.842Z,34
2018-08-25T16:04:05.753Z,34
2018-08-25T16:06:09.814Z,34.2
2018-08-25T16:08:08.375Z,34
2018-08-25T16:10:08.201Z,34.2
2018-08-25T16:12:06.431Z,34.2
2018-08-25T16:14:06.202Z,34.1
2018-08-25T16:16:10.982Z,34.2
2018-08-25T16:18:08.632Z,34.1
2018-08-25T16:20:05.913Z,34.1
2018-08-25T16:22:12.887Z,34
2018-08-25T16:24:05.793Z,34
2018-08-25T16:26:05.862Z,34.1
2018-08-25T16:28:08.365Z,33.4
2018-08-25T16:30:05.616Z,33.4
2018-08-25T16:32:05.297Z,32.5
2018-08-25T16:34:06.046Z,33.3
2018-08-25T16:36:05.739Z,33.2
2018-08-25T16:38:05.506Z,33
2018-08-25T16:40:05.339Z,33.1
2018-08-25T16:42:05.097Z,33.1
2018-08-25T16:44:08.378Z,33
2018-08-25T16:46:12.664Z,33
2018-08-25T16:48:05.353Z,32.8
2018-08-25T16:50:05.070Z,33
2018-08-25T16:52:05.793Z,32.8
2018-08-25T16:54:05.510Z,33.1
2018-08-25T16:56:05.203Z,33.2
2018-08-25T16:58:05.942Z,33.2
2018-08-25T17:00:05.646Z,33.3
2018-08-25T17:02:08.621Z,33
2018-08-25T17:04:05.677Z,33
2018-08-25T17:06:05.511Z,33.3
2018-08-25T17:08:05.241Z,33.2
2018-08-25T17:10:05.530Z,33.3
2018-08-25T17:12:20.402Z,33.2
2018-08-25T17:14:05.099Z,33.2
2018-08-25T17:16:05.885Z,33.2
2018-08-25T17:18:05.827Z,33.2
2018-08-25T17:20:05.528Z,33.3
2018-08-25T17:22:07.935Z,33.4
2018-08-25T17:24:05.263Z,33.4
2018-08-25T17:26:08.577Z,33.3
2018-08-25T17:28:05.347Z,33.3
2018-08-25T17:30:05.060Z,33.3
2018-08-25T17:32:05.759Z,33.2
2018-08-25T17:34:08.629Z,33.3
2018-08-25T17:36:05.409Z,33.4
2018-08-25T17:38:05.645Z,33.6
2018-08-25T17:40:05.411Z,33.8
2018-08-25T17:42:10.279Z,34
2018-08-25T17:44:10.290Z,34.1
2018-08-25T17:46:11.054Z,33.9
2018-08-25T17:48:05.860Z,33.9
2018-08-25T17:50:05.563Z,33.7
2018-08-25T17:52:05.268Z,33.8
2018-08-25T17:54:05.980Z,33.8
2018-08-25T17:56:10.758Z,33.9
2018-08-25T17:58:05.470Z,33.9
2018-08-25T18:00:05.190Z,33.8
2018-08-25T18:02:09.902Z,33.7
2018-08-25T18:04:06.059Z,33.7
2018-08-25T18:06:05.814Z,33.9
2018-08-25T18:08:05.563Z,33.9
2018-08-25T18:10:07.778Z,33.8
2018-08-25T18:12:05.461Z,33.8
2018-08-25T18:14:05.434Z,33.9
2018-08-25T18:16:05.380Z,33.9
2018-08-25T18:18:10.302Z,34.1
2018-08-25T18:20:08.764Z,34.1
2018-08-25T18:22:08.375Z,34.5
2018-08-25T18:24:05.131Z,34.3
2018-08-25T18:26:05.027Z,34.6
2018-08-25T18:28:10.751Z,34.9
2018-08-25T18:30:05.550Z,35.1
2018-08-25T18:32:08.596Z,35.4
2018-08-25T18:34:05.975Z,35.4
2018-08-25T18:36:05.870Z,35.5
2018-08-25T18:38:05.612Z,35.4
2018-08-25T18:40:07.840Z,35.7
2018-08-25T18:42:05.615Z,35.5
2018-08-25T18:44:08.007Z,35.4
2018-08-25T18:46:05.725Z,35.4
2018-08-25T18:48:07.981Z,35.6
2018-08-25T18:50:05.772Z,35.4
2018-08-25T18:52:20.911Z,35.6
2018-08-25T18:54:05.891Z,35.6
2018-08-25T18:56:08.101Z,35.5
2018-08-25T18:58:05.926Z,35.5
2018-08-25T19:00:05.158Z,35.6
2018-08-25T19:02:06.618Z,35.6
2018-08-25T19:04:06.006Z,35.6
2018-08-25T19:06:08.315Z,35.6
2018-08-25T19:08:06.030Z,35.6
2018-08-25T19:10:06.049Z,35.8
2018-08-25T19:12:05.753Z,35.8
2018-08-25T19:14:05.518Z,35.7
2018-08-25T19:16:05.579Z,35.5
2018-08-25T19:18:10.587Z,35.5
2018-08-25T19:20:06.863Z,35.4
2018-08-25T19:22:05.575Z,35.3
2018-08-25T19:24:05.056Z,35.5
2018-08-25T19:26:08.536Z,35.4
2018-08-25T19:28:08.854Z,35.2
2018-08-25T19:30:05.535Z,35.2
2018-08-25T19:32:05.422Z,35.2
2018-08-25T19:34:05.130Z,35.2
2018-08-25T19:36:05.136Z,35.2
2018-08-25T19:38:06.800Z,35
2018-08-25T19:40:05.467Z,35
2018-08-25T19:42:05.172Z,34.8
2018-08-25T19:44:05.880Z,34.8
2018-08-25T19:46:05.638Z,34.8
2018-08-25T19:48:06.872Z,35
2018-08-25T19:50:10.190Z,35.1
2018-08-25T19:52:05.929Z,35.1
2018-08-25T19:54:05.689Z,35
2018-08-25T19:56:07.926Z,35.2
2018-08-25T19:58:05.589Z,35.2
2018-08-25T20:00:08.456Z,35.2
2018-08-25T20:02:05.252Z,35.2
2018-08-25T20:04:06.001Z,35.4
2018-08-25T20:06:05.753Z,35.4
2018-08-25T20:08:05.460Z,35.4
2018-08-25T20:10:05.305Z,35.5
2018-08-25T20:12:06.063Z,35.6
2018-08-25T20:14:08.298Z,35.5
2018-08-25T20:16:07.534Z,35.5
2018-08-25T20:18:05.934Z,35.5
2018-08-25T20:20:05.587Z,35.5
2018-08-25T20:22:05.637Z,35.6
2018-08-25T20:24:05.859Z,35.6
2018-08-25T20:26:05.527Z,35.4
2018-08-25T20:28:05.816Z,35.7
2018-08-25T20:30:08.193Z,35.6
2018-08-25T20:32:07.556Z,35.5
2018-08-25T20:34:05.518Z,35.5
2018-08-25T20:36:05.277Z,35.5
2018-08-25T20:38:11.266Z,35.6
2018-08-25T20:40:05.105Z,35.6
2018-08-25T20:42:05.843Z,35.6
2018-08-25T20:44:05.561Z,35.6
2018-08-25T20:46:05.326Z,35.6
2018-08-25T20:48:05.073Z,35.7
2018-08-25T20:50:05.951Z,35.6
2018-08-25T20:52:05.685Z,35.7
2018-08-25T20:54:07.958Z,35.8
2018-08-25T20:56:05.702Z,35.8
2018-08-25T20:58:07.894Z,35.9
2018-08-25T21:00:08.122Z,35.9
2018-08-25T21:02:05.872Z,35.6
2018-08-25T21:04:07.732Z,35.9
2018-08-25T21:06:05.706Z,35.7
2018-08-25T21:08:05.419Z,35.9
2018-08-25T21:10:10.185Z,35.7
2018-08-25T21:12:05.901Z,35.7
2018-08-25T21:14:05.622Z,35.7
2018-08-25T21:16:08.260Z,35.9
2018-08-25T21:18:05.732Z,35.8
2018-08-25T21:20:05.501Z,35.8
2018-08-25T21:22:05.612Z,35.8
2018-08-25T21:24:05.497Z,35.8
2018-08-25T21:26:07.854Z,35.8
2018-08-25T21:28:05.541Z,35.9
2018-08-25T21:30:05.536Z,35.9
2018-08-25T21:32:05.829Z,35.9
2018-08-25T21:34:05.634Z,36
2018-08-25T21:36:05.371Z,36
2018-08-25T21:38:05.135Z,36
2018-08-25T21:40:05.910Z,36
2018-08-25T21:42:05.140Z,36.1
2018-08-25T21:44:05.836Z,36.1
2018-08-25T21:46:05.541Z,35.9
2018-08-25T21:48:08.405Z,35.9
2018-08-25T21:50:10.201Z,35.8
2018-08-25T21:52:08.443Z,35.8
2018-08-25T21:54:08.201Z,35.9
2018-08-25T21:56:05.877Z,35.9
2018-08-25T21:58:05.606Z,35.9
2018-08-25T22:00:08.335Z,35.9
2018-08-25T22:02:05.429Z,35.9
2018-08-25T22:04:05.159Z,35.8
2018-08-25T22:06:05.895Z,35.8
2018-08-25T22:08:05.585Z,35.9
2018-08-25T22:10:10.335Z,35.9
2018-08-25T22:12:05.046Z,35.9
2018-08-25T22:14:05.792Z,35.9
2018-08-25T22:16:05.598Z,35.9
2018-08-25T22:18:06.091Z,35.9
2018-08-25T22:20:05.835Z,35.9
2018-08-25T22:22:05.049Z,35.7
2018-08-25T22:24:08.300Z,35.9
2018-08-25T22:26:06.078Z,35.7
2018-08-25T22:28:05.768Z,36
2018-08-25T22:30:05.490Z,35.9
2018-08-25T22:32:05.187Z,36
2018-08-25T22:34:13.878Z,35.8
2018-08-25T22:36:05.110Z,35.8
2018-08-25T22:38:05.834Z,36
2018-08-25T22:40:05.593Z,35.8
2018-08-25T22:42:05.687Z,36.1
2018-08-25T22:44:08.229Z,36.1
2018-08-25T22:46:05.939Z,35.8
2018-08-25T22:48:05.199Z,36.1
2018-08-25T22:50:05.918Z,35.9
2018-08-25T22:52:05.680Z,36.1
2018-08-25T22:54:05.410Z,35.9
2018-08-25T22:56:05.070Z,35.9
2018-08-25T22:58:05.731Z,36.1
2018-08-25T23:00:07.947Z,35.9
2018-08-25T23:02:05.597Z,36
2018-08-25T23:04:05.868Z,36
2018-08-25T23:06:05.685Z,35.9
2018-08-25T23:08:05.419Z,36
2018-08-25T23:10:05.209Z,35.9
2018-08-25T23:12:05.078Z,35.9
2018-08-25T23:14:05.788Z,35.9
2018-08-25T23:16:10.703Z,36
2018-08-25T23:18:05.123Z,35.9
2018-08-25T23:20:06.155Z,36.1
2018-08-25T23:22:05.837Z,36
2018-08-25T23:24:05.552Z,36
2018-08-25T23:26:05.389Z,36
2018-08-25T23:28:05.085Z,36
2018-08-25T23:30:08.316Z,36
2018-08-25T23:32:05.075Z,36
2018-08-25T23:34:08.318Z,36.1
2018-08-25T23:36:08.528Z,36.1
2018-08-25T23:38:05.642Z,36.1
2018-08-25T23:40:05.723Z,36.1
2018-08-25T23:42:05.397Z,36.1
2018-08-25T23:44:10.675Z,36.1
2018-08-25T23:46:05.494Z,36.1
2018-08-25T23:48:05.398Z,36.1
2018-08-25T23:50:07.905Z,36.1
2018-08-25T23:52:05.841Z,36.2
2018-08-25T23:54:05.621Z,36.2
2018-08-25T23:56:07.976Z,36.1
2018-08-25T23:58:05.724Z,36.1
